createdAt,value
2018-12-16T00:00:54.538Z,993.32
2018-12-16T00:01:54.739Z,993.28
2018-12-16T00:02:55.963Z,993.29
2018-12-16T00:03:54.758Z,993.29
2018-12-16T00:04:55.335Z,993.28
2018-12-16T00:05:56.000Z,993.26
2018-12-16T00:06:54.449Z,993.33
2018-12-16T00:07:55.548Z,993.19
2018-12-16T00:08:55.856Z,993.20
2018-12-16T00:09:56.114Z,993.14
2018-12-16T00:10:55.043Z,993.09
2018-12-16T00:11:55.426Z,993.04
2018-12-16T00:12:54.800Z,993.02
2018-12-16T00:13:54.456Z,993.01
2018-12-16T00:14:55.219Z,993.00
2018-12-16T00:15:54.786Z,993.02
2018-12-16T00:16:54.475Z,992.97
2018-12-16T00:17:54.526Z,992.93
2018-12-16T00:18:54.467Z,992.88
2018-12-16T00:19:57.175Z,992.90
2018-12-16T00:20:54.397Z,992.85
2018-12-16T00:21:56.519Z,992.85
2018-12-16T00:22:54.419Z,992.80
2018-12-16T00:23:54.266Z,992.81
2018-12-16T00:24:54.238Z,992.81
2018-12-16T00:25:54.231Z,992.74
2018-12-16T00:26:54.275Z,992.73
2018-12-16T00:27:54.200Z,992.67
2018-12-16T00:28:54.190Z,992.66
2018-12-16T00:29:54.188Z,992.64
2018-12-16T00:30:54.187Z,992.63
2018-12-16T00:31:54.206Z,992.61
2018-12-16T00:32:54.157Z,992.65
2018-12-16T00:33:54.167Z,992.71
2018-12-16T00:34:54.154Z,992.65
2018-12-16T00:35:54.114Z,992.74
2018-12-16T00:36:54.103Z,992.67
2018-12-16T00:37:54.100Z,992.73
2018-12-16T00:38:54.089Z,992.76
2018-12-16T00:39:54.085Z,992.75
2018-12-16T00:40:54.081Z,992.76
2018-12-16T00:41:54.084Z,992.73
2018-12-16T00:42:54.054Z,992.73
2018-12-16T00:43:54.031Z,992.70
2018-12-16T00:44:54.063Z,992.69
2018-12-16T00:45:54.012Z,992.71
2018-12-16T00:46:54.016Z,992.71
2018-12-16T00:47:54.009Z,992.75
2018-12-16T00:48:53.984Z,992.70
2018-12-16T00:49:53.988Z,992.73
2018-12-16T00:50:53.968Z,992.72
2018-12-16T00:51:53.982Z,992.69
2018-12-16T00:52:53.943Z,992.69
2018-12-16T00:53:53.930Z,992.78
2018-12-16T00:54:53.924Z,992.77
2018-12-16T00:55:53.960Z,992.76
2018-12-16T00:56:53.901Z,992.76
2018-12-16T00:57:53.900Z,992.77
2018-12-16T00:58:53.908Z,992.78
2018-12-16T00:59:53.884Z,992.74
2018-12-16T01:00:53.884Z,992.78
2018-12-16T01:01:53.875Z,992.81
2018-12-16T01:02:53.839Z,992.79
2018-12-16T01:03:53.828Z,992.80
2018-12-16T01:04:53.816Z,992.80
2018-12-16T01:05:53.806Z,992.87
2018-12-16T01:06:53.795Z,992.84
2018-12-16T01:07:53.809Z,992.83
2018-12-16T01:08:53.811Z,992.82
2018-12-16T01:09:53.769Z,992.91
2018-12-16T01:10:53.808Z,992.85
2018-12-16T01:11:53.750Z,992.89
2018-12-16T01:12:53.762Z,992.97
2018-12-16T01:13:53.725Z,992.99
2018-12-16T01:14:53.717Z,993.00
2018-12-16T01:15:53.706Z,993.00
2018-12-16T01:16:53.694Z,993.04
2018-12-16T01:17:53.684Z,993.02
2018-12-16T01:18:53.676Z,993.02
2018-12-16T01:19:53.684Z,993.09
2018-12-16T01:20:53.661Z,993.08
2018-12-16T01:21:53.681Z,993.13
2018-12-16T01:22:53.638Z,993.10
2018-12-16T01:23:53.651Z,993.11
2018-12-16T01:24:53.634Z,993.13
2018-12-16T01:25:53.610Z,993.14
2018-12-16T01:26:53.604Z,993.15
2018-12-16T01:27:53.611Z,993.20
2018-12-16T01:28:53.577Z,993.23
2018-12-16T01:29:53.607Z,993.21
2018-12-16T01:30:53.583Z,993.17
2018-12-16T01:31:55.226Z,993.14
2018-12-16T01:32:53.559Z,993.16
2018-12-16T01:33:53.523Z,993.14
2018-12-16T01:34:53.538Z,993.12
2018-12-16T01:35:53.514Z,993.15
2018-12-16T01:36:53.503Z,993.13
2018-12-16T01:37:53.487Z,993.10
2018-12-16T01:38:53.494Z,993.12
2018-12-16T01:39:53.475Z,993.11
2018-12-16T01:40:53.449Z,993.13
2018-12-16T01:41:53.446Z,993.09
2018-12-16T01:42:53.422Z,993.12
2018-12-16T01:43:53.415Z,993.09
2018-12-16T01:44:53.406Z,993.11
2018-12-16T01:45:53.408Z,993.07
2018-12-16T01:46:53.384Z,993.00
2018-12-16T01:47:53.385Z,993.01
2018-12-16T01:48:53.392Z,993.00
2018-12-16T01:49:53.374Z,992.92
2018-12-16T01:50:53.372Z,992.87
2018-12-16T01:51:53.329Z,992.92
2018-12-16T01:52:53.322Z,992.86
2018-12-16T01:53:53.314Z,992.83
2018-12-16T01:54:53.303Z,992.78
2018-12-16T01:55:53.287Z,992.76
2018-12-16T01:56:53.305Z,992.77
2018-12-16T01:57:53.275Z,992.72
2018-12-16T01:58:53.266Z,992.71
2018-12-16T01:59:53.245Z,992.67
2018-12-16T02:00:53.282Z,992.63
2018-12-16T02:01:53.227Z,992.65
2018-12-16T02:02:53.232Z,992.61
2018-12-16T02:03:53.207Z,992.58
2018-12-16T02:04:53.204Z,992.53
2018-12-16T02:05:53.184Z,992.52
2018-12-16T02:06:53.201Z,992.47
2018-12-16T02:07:53.172Z,992.47
2018-12-16T02:08:53.152Z,992.39
2018-12-16T02:09:53.143Z,992.38
2018-12-16T02:10:53.148Z,992.38
2018-12-16T02:11:53.129Z,992.28
2018-12-16T02:12:53.135Z,992.21
2018-12-16T02:13:53.106Z,992.18
2018-12-16T02:14:53.098Z,992.13
2018-12-16T02:15:53.088Z,992.05
2018-12-16T02:16:53.084Z,992.04
2018-12-16T02:17:53.080Z,991.97
2018-12-16T02:18:53.089Z,991.96
2018-12-16T02:19:53.046Z,991.95
2018-12-16T02:20:53.038Z,991.87
2018-12-16T02:21:53.019Z,991.89
2018-12-16T02:22:56.779Z,991.87
2018-12-16T02:23:52.995Z,991.83
2018-12-16T02:24:53.002Z,991.81
2018-12-16T02:25:53.008Z,991.77
2018-12-16T02:26:53.000Z,991.75
2018-12-16T02:27:52.953Z,991.72
2018-12-16T02:28:52.980Z,991.70
2018-12-16T02:29:52.943Z,991.79
2018-12-16T02:30:52.922Z,991.73
2018-12-16T02:31:52.942Z,991.73
2018-12-16T02:32:52.915Z,991.68
2018-12-16T02:33:52.925Z,991.71
2018-12-16T02:34:52.886Z,991.62
2018-12-16T02:35:52.900Z,991.57
2018-12-16T02:36:52.864Z,991.58
2018-12-16T02:37:52.854Z,991.51
2018-12-16T02:38:52.862Z,991.53
2018-12-16T02:39:52.828Z,991.52
2018-12-16T02:40:52.846Z,991.45
2018-12-16T02:41:52.831Z,991.48
2018-12-16T02:42:52.799Z,991.46
2018-12-16T02:43:52.793Z,991.46
2018-12-16T02:44:52.791Z,991.42
2018-12-16T02:45:52.800Z,991.44
2018-12-16T02:46:52.761Z,991.43
2018-12-16T02:47:52.778Z,991.38
2018-12-16T02:48:52.755Z,991.41
2018-12-16T02:49:52.726Z,991.38
2018-12-16T02:50:52.717Z,991.34
2018-12-16T02:51:52.707Z,991.35
2018-12-16T02:52:52.709Z,991.36
2018-12-16T02:53:52.707Z,991.43
2018-12-16T02:54:52.679Z,991.32
2018-12-16T02:55:52.662Z,991.34
2018-12-16T02:56:52.658Z,991.30
2018-12-16T02:57:52.643Z,991.27
2018-12-16T02:58:52.636Z,991.32
2018-12-16T02:59:52.626Z,991.33
2018-12-16T03:00:52.622Z,991.34
2018-12-16T03:01:52.628Z,991.29
2018-12-16T03:02:52.598Z,991.27
2018-12-16T03:03:52.584Z,991.22
2018-12-16T03:04:52.569Z,991.28
2018-12-16T03:05:52.563Z,991.25
2018-12-16T03:06:52.551Z,991.21
2018-12-16T03:07:52.622Z,991.19
2018-12-16T03:08:52.545Z,991.17
2018-12-16T03:09:52.518Z,991.07
2018-12-16T03:10:52.536Z,991.05
2018-12-16T03:11:52.540Z,991.01
2018-12-16T03:12:52.487Z,991.01
2018-12-16T03:13:52.476Z,990.96
2018-12-16T03:14:52.470Z,990.97
2018-12-16T03:15:52.452Z,990.94
2018-12-16T03:16:52.452Z,991.02
2018-12-16T03:17:52.456Z,990.96
2018-12-16T03:18:52.427Z,990.99
2018-12-16T03:19:52.428Z,990.94
2018-12-16T03:20:52.404Z,990.89
2018-12-16T03:21:52.419Z,990.83
2018-12-16T03:22:52.389Z,990.79
2018-12-16T03:23:52.412Z,990.71
2018-12-16T03:24:52.361Z,990.67
2018-12-16T03:25:52.351Z,990.66
2018-12-16T03:26:52.345Z,990.62
2018-12-16T03:27:52.330Z,990.61
2018-12-16T03:28:52.348Z,990.65
2018-12-16T03:29:52.306Z,990.65
2018-12-16T03:30:52.330Z,990.63
2018-12-16T03:31:52.310Z,990.59
2018-12-16T03:32:52.289Z,990.58
2018-12-16T03:33:52.284Z,990.49
2018-12-16T03:34:52.261Z,990.44
2018-12-16T03:35:52.261Z,990.40
2018-12-16T03:36:52.233Z,990.36
2018-12-16T03:37:52.225Z,990.35
2018-12-16T03:38:52.230Z,990.32
2018-12-16T03:39:52.221Z,990.32
2018-12-16T03:40:52.196Z,990.27
2018-12-16T03:41:52.188Z,990.29
2018-12-16T03:42:52.219Z,990.25
2018-12-16T03:43:52.229Z,990.21
2018-12-16T03:44:52.158Z,990.22
2018-12-16T03:45:52.152Z,990.13
2018-12-16T03:46:52.145Z,990.10
2018-12-16T03:47:52.118Z,990.01
2018-12-16T03:48:52.118Z,989.99
2018-12-16T03:49:52.100Z,989.92
2018-12-16T03:50:52.090Z,989.98
2018-12-16T03:51:52.075Z,989.94
2018-12-16T03:52:52.065Z,989.97
2018-12-16T03:53:52.082Z,989.96
2018-12-16T03:54:52.046Z,989.99
2018-12-16T03:55:52.039Z,989.99
2018-12-16T03:56:52.021Z,990.03
2018-12-16T03:57:52.018Z,990.02
2018-12-16T03:58:52.033Z,990.00
2018-12-16T03:59:51.994Z,990.05
2018-12-16T04:00:51.985Z,990.01
2018-12-16T04:01:52.004Z,990.00
2018-12-16T04:02:51.964Z,989.94
2018-12-16T04:03:51.954Z,989.92
2018-12-16T04:04:51.981Z,989.93
2018-12-16T04:05:51.948Z,989.90
2018-12-16T04:06:51.922Z,989.90
2018-12-16T04:07:51.914Z,989.92
2018-12-16T04:08:51.911Z,989.92
2018-12-16T04:09:51.888Z,989.90
2018-12-16T04:10:51.879Z,989.90
2018-12-16T04:11:51.874Z,989.95
2018-12-16T04:12:51.885Z,989.99
2018-12-16T04:13:51.851Z,989.95
2018-12-16T04:14:51.870Z,989.95
2018-12-16T04:15:51.827Z,989.92
2018-12-16T04:16:51.837Z,989.84
2018-12-16T04:17:51.836Z,989.79
2018-12-16T04:18:51.795Z,989.78
2018-12-16T04:19:51.813Z,989.78
2018-12-16T04:20:51.781Z,989.78
2018-12-16T04:21:51.814Z,989.73
2018-12-16T04:22:51.758Z,989.66
2018-12-16T04:23:51.741Z,989.63
2018-12-16T04:24:51.737Z,989.66
2018-12-16T04:25:51.734Z,989.69
2018-12-16T04:26:51.738Z,989.63
2018-12-16T04:27:51.719Z,989.64
2018-12-16T04:28:51.729Z,989.54
2018-12-16T04:29:51.683Z,989.56
2018-12-16T04:30:51.681Z,989.56
2018-12-16T04:31:51.667Z,989.51
2018-12-16T04:32:51.657Z,989.53
2018-12-16T04:33:51.651Z,989.59
2018-12-16T04:34:51.627Z,989.52
2018-12-16T04:35:51.641Z,989.56
2018-12-16T04:36:51.626Z,989.50
2018-12-16T04:37:51.598Z,989.52
2018-12-16T04:38:51.596Z,989.58
2018-12-16T04:39:51.573Z,989.56
2018-12-16T04:40:51.574Z,989.64
2018-12-16T04:41:51.565Z,989.68
2018-12-16T04:42:51.550Z,989.68
2018-12-16T04:43:51.538Z,989.75
2018-12-16T04:44:51.534Z,989.72
2018-12-16T04:45:51.518Z,989.75
2018-12-16T04:46:51.514Z,989.80
2018-12-16T04:47:51.525Z,989.78
2018-12-16T04:48:51.488Z,989.82
2018-12-16T04:49:51.476Z,989.79
2018-12-16T04:50:51.472Z,989.75
2018-12-16T04:51:51.452Z,989.82
2018-12-16T04:52:51.463Z,989.82
2018-12-16T04:53:51.455Z,989.82
2018-12-16T04:54:51.428Z,989.83
2018-12-16T04:55:51.437Z,989.84
2018-12-16T04:56:51.400Z,989.81
2018-12-16T04:57:51.389Z,989.80
2018-12-16T04:58:51.396Z,989.78
2018-12-16T04:59:51.387Z,989.78
2018-12-16T05:00:51.359Z,989.78
2018-12-16T05:01:51.385Z,989.79
2018-12-16T05:02:51.342Z,989.79
2018-12-16T05:03:51.331Z,989.81
2018-12-16T05:04:51.337Z,989.81
2018-12-16T05:05:51.328Z,989.78
2018-12-16T05:06:51.328Z,989.79
2018-12-16T05:07:51.281Z,989.76
2018-12-16T05:08:51.292Z,989.78
2018-12-16T05:09:51.266Z,989.72
2018-12-16T05:10:51.276Z,989.70
2018-12-16T05:11:51.266Z,989.68
2018-12-16T05:12:51.231Z,989.68
2018-12-16T05:13:51.223Z,989.62
2018-12-16T05:14:51.219Z,989.62
2018-12-16T05:15:51.202Z,989.63
2018-12-16T05:16:51.213Z,989.60
2018-12-16T05:17:51.181Z,989.59
2018-12-16T05:18:51.198Z,989.64
2018-12-16T05:19:51.166Z,989.54
2018-12-16T05:20:51.154Z,989.52
2018-12-16T05:21:51.135Z,989.48
2018-12-16T05:22:51.142Z,989.51
2018-12-16T05:23:51.138Z,989.50
2018-12-16T05:24:51.103Z,989.49
2018-12-16T05:25:51.098Z,989.42
2018-12-16T05:26:51.082Z,989.42
2018-12-16T05:27:51.080Z,989.37
2018-12-16T05:28:51.088Z,989.37
2018-12-16T05:29:51.072Z,989.33
2018-12-16T05:30:51.043Z,989.28
2018-12-16T05:31:51.031Z,989.25
2018-12-16T05:32:51.028Z,989.23
2018-12-16T05:33:51.025Z,989.15
2018-12-16T05:34:51.007Z,989.16
2018-12-16T05:35:51.011Z,989.05
2018-12-16T05:36:51.003Z,989.14
2018-12-16T05:37:50.968Z,989.10
2018-12-16T05:38:50.959Z,989.08
2018-12-16T05:39:50.951Z,989.09
2018-12-16T05:40:50.948Z,989.04
2018-12-16T05:41:50.949Z,988.98
2018-12-16T05:42:50.926Z,988.97
2018-12-16T05:43:50.907Z,989.00
2018-12-16T05:44:50.929Z,989.05
2018-12-16T05:45:50.892Z,989.09
2018-12-16T05:46:50.885Z,989.09
2018-12-16T05:47:50.902Z,989.04
2018-12-16T05:48:50.872Z,989.06
2018-12-16T05:49:50.877Z,989.07
2018-12-16T05:50:50.836Z,989.03
2018-12-16T05:51:50.846Z,989.02
2018-12-16T05:52:50.815Z,989.02
2018-12-16T05:53:50.800Z,988.99
2018-12-16T05:54:50.792Z,988.94
2018-12-16T05:55:50.791Z,988.90
2018-12-16T05:56:50.771Z,988.87
2018-12-16T05:57:50.760Z,988.87
2018-12-16T05:58:50.750Z,988.83
2018-12-16T05:59:50.768Z,988.86
2018-12-16T06:00:50.756Z,988.89
2018-12-16T06:01:50.731Z,988.88
2018-12-16T06:02:50.707Z,988.85
2018-12-16T06:03:50.712Z,988.84
2018-12-16T06:04:50.685Z,988.84
2018-12-16T06:05:50.676Z,988.77
2018-12-16T06:06:50.671Z,988.75
2018-12-16T06:07:50.654Z,988.74
2018-12-16T06:08:50.652Z,988.80
2018-12-16T06:09:50.646Z,988.82
2018-12-16T06:10:50.633Z,988.81
2018-12-16T06:11:50.642Z,988.84
2018-12-16T06:12:50.618Z,988.84
2018-12-16T06:13:50.594Z,988.86
2018-12-16T06:14:50.584Z,988.91
2018-12-16T06:15:50.581Z,988.89
2018-12-16T06:16:50.569Z,988.87
2018-12-16T06:17:50.549Z,988.76
2018-12-16T06:18:50.553Z,988.76
2018-12-16T06:19:50.568Z,988.68
2018-12-16T06:20:50.556Z,988.63
2018-12-16T06:21:50.508Z,988.66
2018-12-16T06:22:50.542Z,988.72
2018-12-16T06:23:55.529Z,988.80
2018-12-16T06:24:50.477Z,988.78
2018-12-16T06:25:50.468Z,988.74
2018-12-16T06:26:50.455Z,988.76
2018-12-16T06:27:50.482Z,988.76
2018-12-16T06:28:50.449Z,988.81
2018-12-16T06:29:50.449Z,988.86
2018-12-16T06:30:50.438Z,988.95
2018-12-16T06:31:50.417Z,988.99
2018-12-16T06:32:50.415Z,989.05
2018-12-16T06:33:50.384Z,989.05
2018-12-16T06:34:50.385Z,989.02
2018-12-16T06:35:50.363Z,989.04
2018-12-16T06:36:50.384Z,989.05
2018-12-16T06:37:50.356Z,989.12
2018-12-16T06:38:50.353Z,989.13
2018-12-16T06:39:50.332Z,989.10
2018-12-16T06:40:50.355Z,989.11
2018-12-16T06:41:50.299Z,989.10
2018-12-16T06:42:50.293Z,989.08
2018-12-16T06:43:50.283Z,989.07
2018-12-16T06:44:50.286Z,989.11
2018-12-16T06:45:50.253Z,989.13
2018-12-16T06:46:50.244Z,989.20
2018-12-16T06:47:50.262Z,989.15
2018-12-16T06:48:50.249Z,989.12
2018-12-16T06:49:50.215Z,989.17
2018-12-16T06:50:50.207Z,989.15
2018-12-16T06:51:50.193Z,989.23
2018-12-16T06:52:50.205Z,989.16
2018-12-16T06:53:50.169Z,989.11
2018-12-16T06:54:50.166Z,989.13
2018-12-16T06:55:50.182Z,989.16
2018-12-16T06:56:50.143Z,989.20
2018-12-16T06:57:50.156Z,989.24
2018-12-16T06:58:50.141Z,989.25
2018-12-16T06:59:50.119Z,989.20
2018-12-16T07:00:50.100Z,989.13
2018-12-16T07:01:50.118Z,989.17
2018-12-16T07:02:50.104Z,989.16
2018-12-16T07:03:50.086Z,989.22
2018-12-16T07:04:50.055Z,989.29
2018-12-16T07:05:50.051Z,989.28
2018-12-16T07:06:50.041Z,989.27
2018-12-16T07:07:50.029Z,989.26
2018-12-16T07:08:50.027Z,989.22
2018-12-16T07:09:50.028Z,989.21
2018-12-16T07:10:49.997Z,989.16
2018-12-16T07:11:49.994Z,989.21
2018-12-16T07:12:49.973Z,989.24
2018-12-16T07:13:49.999Z,989.29
2018-12-16T07:14:49.993Z,989.30
2018-12-16T07:15:49.956Z,989.38
2018-12-16T07:16:49.962Z,989.36
2018-12-16T07:17:49.965Z,989.39
2018-12-16T07:18:49.950Z,989.37
2018-12-16T07:19:49.914Z,989.35
2018-12-16T07:20:49.891Z,989.35
2018-12-16T07:21:49.909Z,989.32
2018-12-16T07:22:49.899Z,989.37
2018-12-16T07:23:49.890Z,989.36
2018-12-16T07:24:49.867Z,989.41
2018-12-16T07:25:49.886Z,989.40
2018-12-16T07:26:49.845Z,989.40
2018-12-16T07:27:49.824Z,989.40
2018-12-16T07:28:49.826Z,989.45
2018-12-16T07:29:49.795Z,989.52
2018-12-16T07:30:49.786Z,989.52
2018-12-16T07:31:49.780Z,989.61
2018-12-16T07:32:49.825Z,989.55
2018-12-16T07:33:49.808Z,989.55
2018-12-16T07:34:49.780Z,989.58
2018-12-16T07:35:49.732Z,989.55
2018-12-16T07:36:49.761Z,989.49
2018-12-16T07:37:49.731Z,989.54
2018-12-16T07:38:49.698Z,989.52
2018-12-16T07:39:49.688Z,989.59
2018-12-16T07:40:51.387Z,989.58
2018-12-16T07:41:49.705Z,989.63
2018-12-16T07:42:49.685Z,989.55
2018-12-16T07:43:49.693Z,989.53
2018-12-16T07:44:49.666Z,989.53
2018-12-16T07:45:49.670Z,989.46
2018-12-16T07:46:49.678Z,989.47
2018-12-16T07:47:49.614Z,989.44
2018-12-16T07:48:49.607Z,989.40
2018-12-16T07:49:49.625Z,989.40
2018-12-16T07:50:49.630Z,989.32
2018-12-16T07:51:49.606Z,989.29
2018-12-16T07:52:49.591Z,989.29
2018-12-16T07:53:49.669Z,989.31
2018-12-16T07:54:49.539Z,989.32
2018-12-16T07:55:49.522Z,989.42
2018-12-16T07:56:49.521Z,989.47
2018-12-16T07:57:49.507Z,989.50
2018-12-16T07:58:49.532Z,989.51
2018-12-16T07:59:49.502Z,989.50
2018-12-16T08:00:49.511Z,989.55
2018-12-16T08:01:49.478Z,989.54
2018-12-16T08:02:49.485Z,989.59
2018-12-16T08:03:49.446Z,989.61
2018-12-16T08:04:49.465Z,989.55
2018-12-16T08:05:49.441Z,989.53
2018-12-16T08:06:49.420Z,989.54
2018-12-16T08:07:49.411Z,989.56
2018-12-16T08:08:49.389Z,989.55
2018-12-16T08:09:49.398Z,989.54
2018-12-16T08:10:49.374Z,989.61
2018-12-16T08:11:49.359Z,989.56
2018-12-16T08:12:49.353Z,989.54
2018-12-16T08:13:49.339Z,989.61
2018-12-16T08:14:49.343Z,989.60
2018-12-16T08:15:49.314Z,989.61
2018-12-16T08:16:49.304Z,989.64
2018-12-16T08:17:49.298Z,989.66
2018-12-16T08:18:49.285Z,989.71
2018-12-16T08:19:49.299Z,989.70
2018-12-16T08:20:49.276Z,989.75
2018-12-16T08:21:49.281Z,989.72
2018-12-16T08:22:49.265Z,989.80
2018-12-16T08:23:49.245Z,989.78
2018-12-16T08:24:49.223Z,989.72
2018-12-16T08:25:49.205Z,989.73
2018-12-16T08:26:49.216Z,989.72
2018-12-16T08:27:49.211Z,989.69
2018-12-16T08:28:49.174Z,989.70
2018-12-16T08:29:49.165Z,989.71
2018-12-16T08:30:49.198Z,989.70
2018-12-16T08:31:49.319Z,989.71
2018-12-16T08:32:49.135Z,989.66
2018-12-16T08:33:49.185Z,989.68
2018-12-16T08:34:49.120Z,989.72
2018-12-16T08:35:49.117Z,989.72
2018-12-16T08:36:49.119Z,989.74
2018-12-16T08:37:49.247Z,989.77
2018-12-16T08:38:49.125Z,989.75
2018-12-16T08:39:49.078Z,989.76
2018-12-16T08:40:49.062Z,989.76
2018-12-16T08:41:49.042Z,989.75
2018-12-16T08:42:49.081Z,989.74
2018-12-16T08:43:49.038Z,989.77
2018-12-16T08:44:49.015Z,989.82
2018-12-16T08:45:49.035Z,989.82
2018-12-16T08:46:48.991Z,989.80
2018-12-16T08:47:49.012Z,989.73
2018-12-16T08:48:48.988Z,989.73
2018-12-16T08:49:48.979Z,989.70
2018-12-16T08:50:48.948Z,989.70
2018-12-16T08:51:48.943Z,989.76
2018-12-16T08:52:48.926Z,989.76
2018-12-16T08:53:48.937Z,989.80
2018-12-16T08:54:48.934Z,989.77
2018-12-16T08:55:48.895Z,989.77
2018-12-16T08:56:48.883Z,989.80
2018-12-16T08:57:48.895Z,989.82
2018-12-16T08:58:48.882Z,989.86
2018-12-16T08:59:48.869Z,989.88
2018-12-16T09:00:48.845Z,989.92
2018-12-16T09:01:48.842Z,989.88
2018-12-16T09:02:48.830Z,989.87
2018-12-16T09:03:48.838Z,989.88
2018-12-16T09:04:48.836Z,989.88
2018-12-16T09:05:48.805Z,989.86
2018-12-16T09:06:48.831Z,989.82
2018-12-16T09:07:48.788Z,989.81
2018-12-16T09:08:48.793Z,989.81
2018-12-16T09:09:48.765Z,989.84
2018-12-16T09:10:48.770Z,989.83
2018-12-16T09:11:48.755Z,989.80
2018-12-16T09:12:48.727Z,989.80
2018-12-16T09:13:48.706Z,989.79
2018-12-16T09:14:48.723Z,989.81
2018-12-16T09:15:48.789Z,989.80
2018-12-16T09:16:48.692Z,989.82
2018-12-16T09:17:48.680Z,989.84
2018-12-16T09:18:48.656Z,989.88
2018-12-16T09:19:48.647Z,989.88
2018-12-16T09:20:48.652Z,989.87
2018-12-16T09:21:48.657Z,989.91
2018-12-16T09:22:48.623Z,989.97
2018-12-16T09:23:48.599Z,989.96
2018-12-16T09:24:48.624Z,989.97
2018-12-16T09:25:48.597Z,989.95
2018-12-16T09:26:48.581Z,989.97
2018-12-16T09:27:48.582Z,989.99
2018-12-16T09:28:48.550Z,989.96
2018-12-16T09:29:48.545Z,989.95
2018-12-16T09:30:48.538Z,990.03
2018-12-16T09:31:48.541Z,989.99
2018-12-16T09:32:48.538Z,989.99
2018-12-16T09:33:48.527Z,990.02
2018-12-16T09:34:48.506Z,990.02
2018-12-16T09:35:48.482Z,990.07
2018-12-16T09:36:48.511Z,990.01
2018-12-16T09:37:48.453Z,990.05
2018-12-16T09:38:48.447Z,990.04
2018-12-16T09:39:48.468Z,990.02
2018-12-16T09:40:48.425Z,990.07
2018-12-16T09:41:48.413Z,990.09
2018-12-16T09:42:48.419Z,990.09
2018-12-16T09:43:48.422Z,990.11
2018-12-16T09:44:48.387Z,990.02
2018-12-16T09:45:49.552Z,990.09
2018-12-16T09:46:48.361Z,990.10
2018-12-16T09:47:48.360Z,990.04
2018-12-16T09:48:48.344Z,990.03
2018-12-16T09:49:48.337Z,990.03
2018-12-16T09:50:48.316Z,990.05
2018-12-16T09:51:49.670Z,990.07
2018-12-16T09:52:48.305Z,990.09
2018-12-16T09:53:48.289Z,990.07
2018-12-16T09:54:48.282Z,990.02
2018-12-16T09:55:48.278Z,989.99
2018-12-16T09:56:48.296Z,990.04
2018-12-16T09:57:48.243Z,990.00
2018-12-16T09:58:48.261Z,990.07
2018-12-16T09:59:48.220Z,990.08
2018-12-16T10:00:48.215Z,990.05
2018-12-16T10:01:48.244Z,990.02
2018-12-16T10:02:48.201Z,990.01
2018-12-16T10:03:48.213Z,989.99
2018-12-16T10:04:48.181Z,989.96
2018-12-16T10:05:48.189Z,989.91
2018-12-16T10:06:48.176Z,989.96
2018-12-16T10:07:48.202Z,989.96
2018-12-16T10:08:48.155Z,989.97
2018-12-16T10:09:48.148Z,989.96
2018-12-16T10:10:48.126Z,990.02
2018-12-16T10:11:48.130Z,989.99
2018-12-16T10:12:48.126Z,990.04
2018-12-16T10:13:48.099Z,990.02
2018-12-16T10:14:48.135Z,989.98
2018-12-16T10:15:48.101Z,989.99
2018-12-16T10:16:48.056Z,989.98
2018-12-16T10:17:48.038Z,989.93
2018-12-16T10:18:48.093Z,989.95
2018-12-16T10:19:48.020Z,989.96
2018-12-16T10:20:48.003Z,989.99
2018-12-16T10:21:48.045Z,989.97
2018-12-16T10:22:48.034Z,990.00
2018-12-16T10:23:48.009Z,989.99
2018-12-16T10:24:51.258Z,990.00
2018-12-16T10:25:47.977Z,990.00
2018-12-16T10:26:47.983Z,989.94
2018-12-16T10:27:47.981Z,990.02
2018-12-16T10:28:47.953Z,989.94
2018-12-16T10:29:47.981Z,989.90
2018-12-16T10:30:47.926Z,989.90
2018-12-16T10:31:47.926Z,989.87
2018-12-16T10:32:47.952Z,989.82
2018-12-16T10:33:47.920Z,989.80
2018-12-16T10:34:47.924Z,989.83
2018-12-16T10:35:47.905Z,989.81
2018-12-16T10:36:47.948Z,989.79
2018-12-16T10:37:47.865Z,989.80
2018-12-16T10:38:47.880Z,989.82
2018-12-16T10:39:47.833Z,989.83
2018-12-16T10:40:47.818Z,989.81
2018-12-16T10:41:47.830Z,989.79
2018-12-16T10:42:47.851Z,989.78
2018-12-16T10:43:47.834Z,989.77
2018-12-16T10:44:47.784Z,989.76
2018-12-16T10:45:47.741Z,989.71
2018-12-16T10:46:47.807Z,989.70
2018-12-16T10:47:47.724Z,989.65
2018-12-16T10:48:47.718Z,989.64
2018-12-16T10:49:47.742Z,989.65
2018-12-16T10:50:47.723Z,989.62
2018-12-16T10:51:47.735Z,989.59
2018-12-16T10:52:47.697Z,989.55
2018-12-16T10:53:47.690Z,989.60
2018-12-16T10:54:47.672Z,989.59
2018-12-16T10:55:47.699Z,989.62
2018-12-16T10:56:47.688Z,989.60
2018-12-16T10:57:47.831Z,989.60
2018-12-16T10:58:48.584Z,989.61
2018-12-16T10:59:47.637Z,989.58
2018-12-16T11:00:47.699Z,989.64
2018-12-16T11:01:47.797Z,989.65
2018-12-16T11:02:47.685Z,989.70
2018-12-16T11:03:47.629Z,989.73
2018-12-16T11:04:47.612Z,989.74
2018-12-16T11:05:47.544Z,989.70
2018-12-16T11:06:47.699Z,989.67
2018-12-16T11:07:47.617Z,989.61
2018-12-16T11:08:47.518Z,989.60
2018-12-16T11:09:47.568Z,989.59
2018-12-16T11:10:47.531Z,989.66
2018-12-16T11:11:47.538Z,989.65
2018-12-16T11:12:47.512Z,989.65
2018-12-16T11:13:47.544Z,989.60
2018-12-16T11:14:47.529Z,989.65
2018-12-16T11:15:47.520Z,989.68
2018-12-16T11:16:47.573Z,989.62
2018-12-16T11:17:47.510Z,989.61
2018-12-16T11:18:47.467Z,989.61
2018-12-16T11:19:47.412Z,989.58
2018-12-16T11:20:47.429Z,989.56
2018-12-16T11:21:47.401Z,989.59
2018-12-16T11:22:47.416Z,989.61
2018-12-16T11:23:53.547Z,989.62
2018-12-16T11:24:47.452Z,989.57
2018-12-16T11:25:47.349Z,989.57
2018-12-16T11:26:47.338Z,989.56
2018-12-16T11:27:47.321Z,989.52
2018-12-16T11:28:47.348Z,989.59
2018-12-16T11:29:47.310Z,989.66
2018-12-16T11:30:47.357Z,989.66
2018-12-16T11:31:47.263Z,989.69
2018-12-16T11:32:47.280Z,989.73
2018-12-16T11:33:47.255Z,989.68
2018-12-16T11:34:47.279Z,989.66
2018-12-16T11:35:47.260Z,989.69
2018-12-16T11:36:47.257Z,989.76
2018-12-16T11:37:47.214Z,989.72
2018-12-16T11:38:47.244Z,989.74
2018-12-16T11:39:47.288Z,989.69
2018-12-16T11:40:48.089Z,989.69
2018-12-16T11:41:48.598Z,989.65
2018-12-16T11:42:47.148Z,989.65
2018-12-16T11:43:47.166Z,989.63
2018-12-16T11:44:47.205Z,989.59
2018-12-16T11:45:47.121Z,989.58
2018-12-16T11:46:47.158Z,989.57
2018-12-16T11:47:47.113Z,989.55
2018-12-16T11:48:47.084Z,989.63
2018-12-16T11:49:47.076Z,989.61
2018-12-16T11:50:47.094Z,989.62
2018-12-16T11:51:47.053Z,989.62
2018-12-16T11:52:47.110Z,989.58
2018-12-16T11:53:47.041Z,989.54
2018-12-16T11:54:47.029Z,989.52
2018-12-16T11:55:47.031Z,989.50
2018-12-16T11:56:47.032Z,989.47
2018-12-16T11:57:47.036Z,989.46
2018-12-16T11:58:46.998Z,989.42
2018-12-16T11:59:47.065Z,989.36
2018-12-16T12:00:47.230Z,989.40
2018-12-16T12:01:47.017Z,989.40
2018-12-16T12:02:46.952Z,989.34
2018-12-16T12:03:47.002Z,989.38
2018-12-16T12:04:46.924Z,989.37
2018-12-16T12:05:46.931Z,989.37
2018-12-16T12:06:46.937Z,989.38
2018-12-16T12:07:46.930Z,989.39
2018-12-16T12:08:46.875Z,989.38
2018-12-16T12:09:46.881Z,989.42
2018-12-16T12:10:46.852Z,989.41
2018-12-16T12:11:46.907Z,989.46
2018-12-16T12:12:46.870Z,989.53
2018-12-16T12:13:46.844Z,989.56
2018-12-16T12:14:46.815Z,989.58
2018-12-16T12:15:46.855Z,989.56
2018-12-16T12:16:46.821Z,989.64
2018-12-16T12:17:46.804Z,989.65
2018-12-16T12:18:46.774Z,989.70
2018-12-16T12:19:46.790Z,989.71
2018-12-16T12:20:46.771Z,989.71
2018-12-16T12:21:46.810Z,989.69
2018-12-16T12:22:46.810Z,989.69
2018-12-16T12:23:46.724Z,989.68
2018-12-16T12:24:46.754Z,989.69
2018-12-16T12:25:46.825Z,989.68
2018-12-16T12:26:46.738Z,989.70
2018-12-16T12:27:46.763Z,989.67
2018-12-16T12:28:46.735Z,989.68